< < Back
Terminal Aerodrome Forecast


Current Version              Previous Versions:   1  2  3  4  5  6  7  8  9  

Terminal Aerodrome Forecast

916
FTUS42 KFFC 221700
TAFCSG
TAF
KCSG 221735Z 2218/2318 26012KT P6SM BKN050
     FM222000 28012KT P6SM BKN035 OVC080
      TEMPO 2220/2224 3SM -TSRA BKN015CB
     FM230000 27007KT P6SM BKN025
     FM230400 29005KT P6SM BKN035
     FM231400 32010KT P6SM SCT040=

Latest METAR

627
SAUS70 KWBC 231300
MTRCSG
METAR KCSG 231251Z 02003KT 7SM CLR 17/14 A2995 RMK AO2 SLP138
T01720144


USA.gov is the U.S. government's official web portal to all federal, state and local government web resources and services.